sensor_id;sensor_type;location;lat;lon;timestamp;P1;durP1;ratioP1;P2;durP2;ratioP2
20042;SDS011;10182;52.896;6.496;2023-06-14T00:04:02;4.67;;;2.27;;
20042;SDS011;10182;52.896;6.496;2023-06-14T00:09:05;2.23;;;1.77;;
20042;SDS011;10182;52.896;6.496;2023-06-14T00:14:10;8.20;;;2.30;;
20042;SDS011;10182;52.896;6.496;2023-06-14T00:19:11;4.63;;;2.10;;
20042;SDS011;10182;52.896;6.496;2023-06-14T00:24:13;7.20;;;2.33;;
20042;SDS011;10182;52.896;6.496;2023-06-14T00:29:16;8.47;;;2.50;;
20042;SDS011;10182;52.896;6.496;2023-06-14T00:34:18;4.87;;;2.07;;
20042;SDS011;10182;52.896;6.496;2023-06-14T00:39:19;4.03;;;2.23;;
20042;SDS011;10182;52.896;6.496;2023-06-14T00:44:22;4.67;;;2.37;;
20042;SDS011;10182;52.896;6.496;2023-06-14T00:49:24;3.97;;;2.50;;
20042;SDS011;10182;52.896;6.496;2023-06-14T00:54:26;5.10;;;2.43;;
20042;SDS011;10182;52.896;6.496;2023-06-14T00:59:29;6.73;;;2.53;;
20042;SDS011;10182;52.896;6.496;2023-06-14T01:04:31;7.30;;;2.27;;
20042;SDS011;10182;52.896;6.496;2023-06-14T01:09:34;2.47;;;1.80;;
20042;SDS011;10182;52.896;6.496;2023-06-14T01:14:45;4.23;;;2.30;;
20042;SDS011;10182;52.896;6.496;2023-06-14T01:19:50;3.47;;;1.97;;
20042;SDS011;10182;52.896;6.496;2023-06-14T01:24:59;4.37;;;1.90;;
20042;SDS011;10182;52.896;6.496;2023-06-14T01:30:00;4.77;;;2.10;;
20042;SDS011;10182;52.896;6.496;2023-06-14T01:35:02;5.20;;;2.20;;
20042;SDS011;10182;52.896;6.496;2023-06-14T01:40:07;4.80;;;2.10;;
20042;SDS011;10182;52.896;6.496;2023-06-14T01:45:11;5.83;;;2.60;;
20042;SDS011;10182;52.896;6.496;2023-06-14T01:50:12;5.47;;;2.23;;
20042;SDS011;10182;52.896;6.496;2023-06-14T01:55:16;6.70;;;2.80;;
20042;SDS011;10182;52.896;6.496;2023-06-14T02:00:18;7.43;;;2.13;;
20042;SDS011;10182;52.896;6.496;2023-06-14T02:05:20;6.67;;;2.10;;
20042;SDS011;10182;52.896;6.496;2023-06-14T02:10:23;4.07;;;2.10;;
20042;SDS011;10182;52.896;6.496;2023-06-14T02:15:25;5.17;;;2.83;;
20042;SDS011;10182;52.896;6.496;2023-06-14T02:20:33;2.80;;;2.10;;
20042;SDS011;10182;52.896;6.496;2023-06-14T02:25:37;4.37;;;2.20;;
20042;SDS011;10182;52.896;6.496;2023-06-14T02:30:39;4.50;;;2.27;;
20042;SDS011;10182;52.896;6.496;2023-06-14T02:35:41;3.40;;;2.30;;
20042;SDS011;10182;52.896;6.496;2023-06-14T02:40:44;6.43;;;2.60;;
20042;SDS011;10182;52.896;6.496;2023-06-14T02:45:46;4.17;;;1.90;;
20042;SDS011;10182;52.896;6.496;2023-06-14T02:50:48;6.67;;;2.60;;
20042;SDS011;10182;52.896;6.496;2023-06-14T02:55:51;4.33;;;2.60;;
20042;SDS011;10182;52.896;6.496;2023-06-14T03:00:55;5.40;;;2.90;;
20042;SDS011;10182;52.896;6.496;2023-06-14T03:05:58;4.70;;;2.50;;
20042;SDS011;10182;52.896;6.496;2023-06-14T03:11:06;8.30;;;2.90;;
20042;SDS011;10182;52.896;6.496;2023-06-14T03:16:07;3.80;;;2.77;;
20042;SDS011;10182;52.896;6.496;2023-06-14T03:21:09;3.87;;;2.43;;
20042;SDS011;10182;52.896;6.496;2023-06-14T03:26:13;5.47;;;2.57;;
20042;SDS011;10182;52.896;6.496;2023-06-14T03:31:15;10.30;;;2.90;;
20042;SDS011;10182;52.896;6.496;2023-06-14T03:36:17;3.43;;;2.57;;
20042;SDS011;10182;52.896;6.496;2023-06-14T03:41:20;4.20;;;2.70;;
20042;SDS011;10182;52.896;6.496;2023-06-14T03:46:22;5.10;;;3.00;;
20042;SDS011;10182;52.896;6.496;2023-06-14T03:51:23;6.13;;;2.53;;
20042;SDS011;10182;52.896;6.496;2023-06-14T03:56:27;5.93;;;2.90;;
20042;SDS011;10182;52.896;6.496;2023-06-14T04:01:28;6.73;;;2.50;;
20042;SDS011;10182;52.896;6.496;2023-06-14T04:06:31;3.37;;;2.53;;
20042;SDS011;10182;52.896;6.496;2023-06-14T04:11:34;4.40;;;2.90;;
20042;SDS011;10182;52.896;6.496;2023-06-14T04:16:36;3.87;;;2.23;;
20042;SDS011;10182;52.896;6.496;2023-06-14T04:21:38;3.87;;;2.80;;
20042;SDS011;10182;52.896;6.496;2023-06-14T04:26:41;7.80;;;2.73;;
20042;SDS011;10182;52.896;6.496;2023-06-14T04:31:44;6.97;;;2.93;;
20042;SDS011;10182;52.896;6.496;2023-06-14T04:36:47;4.03;;;2.70;;
20042;SDS011;10182;52.896;6.496;2023-06-14T04:41:54;4.97;;;2.80;;
20042;SDS011;10182;52.896;6.496;2023-06-14T04:47:00;3.37;;;2.73;;
20042;SDS011;10182;52.896;6.496;2023-06-14T04:52:02;8.57;;;2.87;;
20042;SDS011;10182;52.896;6.496;2023-06-14T04:57:05;7.57;;;2.70;;
20042;SDS011;10182;52.896;6.496;2023-06-14T05:02:07;4.53;;;2.93;;
20042;SDS011;10182;52.896;6.496;2023-06-14T05:07:09;5.67;;;3.20;;
20042;SDS011;10182;52.896;6.496;2023-06-14T05:12:12;4.90;;;2.87;;
20042;SDS011;10182;52.896;6.496;2023-06-14T05:17:14;4.10;;;3.63;;
20042;SDS011;10182;52.896;6.496;2023-06-14T05:22:17;4.30;;;3.07;;
20042;SDS011;10182;52.896;6.496;2023-06-14T05:27:20;3.07;;;2.77;;
20042;SDS011;10182;52.896;6.496;2023-06-14T05:32:21;7.70;;;2.90;;
20042;SDS011;10182;52.896;6.496;2023-06-14T05:37:23;4.90;;;3.00;;
20042;SDS011;10182;52.896;6.496;2023-06-14T05:42:26;2.63;;;2.43;;
20042;SDS011;10182;52.896;6.496;2023-06-14T05:47:28;5.33;;;3.20;;
20042;SDS011;10182;52.896;6.496;2023-06-14T05:52:29;5.47;;;3.10;;
20042;SDS011;10182;52.896;6.496;2023-06-14T05:57:33;6.37;;;2.70;;
20042;SDS011;10182;52.896;6.496;2023-06-14T06:02:34;7.23;;;3.37;;
20042;SDS011;10182;52.896;6.496;2023-06-14T06:07:36;7.40;;;3.10;;
20042;SDS011;10182;52.896;6.496;2023-06-14T06:12:42;5.40;;;3.00;;
20042;SDS011;10182;52.896;6.496;2023-06-14T06:17:43;4.40;;;2.50;;
20042;SDS011;10182;52.896;6.496;2023-06-14T06:22:45;5.70;;;2.90;;
20042;SDS011;10182;52.896;6.496;2023-06-14T06:27:48;5.73;;;2.67;;
20042;SDS011;10182;52.896;6.496;2023-06-14T06:32:50;3.93;;;2.53;;
20042;SDS011;10182;52.896;6.496;2023-06-14T06:37:51;3.50;;;2.50;;
20042;SDS011;10182;52.896;6.496;2023-06-14T06:42:55;2.83;;;2.47;;
20042;SDS011;10182;52.896;6.496;2023-06-14T06:47:56;5.77;;;2.83;;
20042;SDS011;10182;52.896;6.496;2023-06-14T06:52:58;4.90;;;2.53;;
20042;SDS011;10182;52.896;6.496;2023-06-14T06:58:01;8.07;;;2.60;;
20042;SDS011;10182;52.896;6.496;2023-06-14T07:03:05;2.67;;;2.10;;
20042;SDS011;10182;52.896;6.496;2023-06-14T07:08:08;3.73;;;2.10;;
20042;SDS011;10182;52.896;6.496;2023-06-14T07:13:11;6.83;;;2.27;;
20042;SDS011;10182;52.896;6.496;2023-06-14T07:18:12;5.83;;;2.60;;
20042;SDS011;10182;52.896;6.496;2023-06-14T07:23:14;5.07;;;2.13;;
20042;SDS011;10182;52.896;6.496;2023-06-14T07:28:17;5.00;;;2.20;;
20042;SDS011;10182;52.896;6.496;2023-06-14T07:33:19;7.03;;;2.73;;
20042;SDS011;10182;52.896;6.496;2023-06-14T07:38:21;5.87;;;2.20;;
20042;SDS011;10182;52.896;6.496;2023-06-14T07:43:24;4.63;;;2.20;;
20042;SDS011;10182;52.896;6.496;2023-06-14T07:48:26;6.50;;;2.70;;
20042;SDS011;10182;52.896;6.496;2023-06-14T07:53:27;6.17;;;2.30;;
20042;SDS011;10182;52.896;6.496;2023-06-14T07:58:32;3.07;;;2.43;;
20042;SDS011;10182;52.896;6.496;2023-06-14T08:03:33;5.73;;;2.50;;
20042;SDS011;10182;52.896;6.496;2023-06-14T08:08:35;6.27;;;2.40;;
20042;SDS011;10182;52.896;6.496;2023-06-14T08:13:38;6.23;;;2.40;;
20042;SDS011;10182;52.896;6.496;2023-06-14T08:18:40;5.50;;;2.30;;
20042;SDS011;10182;52.896;6.496;2023-06-14T08:23:41;4.17;;;2.27;;
20042;SDS011;10182;52.896;6.496;2023-06-14T08:28:45;5.80;;;2.10;;
20042;SDS011;10182;52.896;6.496;2023-06-14T08:33:47;2.73;;;1.60;;
20042;SDS011;10182;52.896;6.496;2023-06-14T08:38:48;4.00;;;1.87;;
20042;SDS011;10182;52.896;6.496;2023-06-14T08:43:51;6.77;;;1.83;;
20042;SDS011;10182;52.896;6.496;2023-06-14T08:48:54;1.87;;;1.40;;
20042;SDS011;10182;52.896;6.496;2023-06-14T08:53:58;3.47;;;1.80;;
20042;SDS011;10182;52.896;6.496;2023-06-14T08:59:03;3.90;;;2.30;;
20042;SDS011;10182;52.896;6.496;2023-06-14T09:04:05;2.97;;;1.77;;
20042;SDS011;10182;52.896;6.496;2023-06-14T09:09:07;5.03;;;2.17;;
20042;SDS011;10182;52.896;6.496;2023-06-14T09:14:10;2.80;;;1.90;;
20042;SDS011;10182;52.896;6.496;2023-06-14T09:19:13;1.90;;;1.80;;
20042;SDS011;10182;52.896;6.496;2023-06-14T09:24:23;2.60;;;2.00;;
20042;SDS011;10182;52.896;6.496;2023-06-14T09:29:27;4.87;;;1.80;;
20042;SDS011;10182;52.896;6.496;2023-06-14T09:34:30;2.90;;;1.87;;
20042;SDS011;10182;52.896;6.496;2023-06-14T09:39:34;4.13;;;2.00;;
20042;SDS011;10182;52.896;6.496;2023-06-14T09:44:37;4.47;;;2.17;;
20042;SDS011;10182;52.896;6.496;2023-06-14T09:49:39;5.83;;;2.70;;
20042;SDS011;10182;52.896;6.496;2023-06-14T09:54:41;4.00;;;2.30;;
20042;SDS011;10182;52.896;6.496;2023-06-14T09:59:48;3.50;;;1.90;;
20042;SDS011;10182;52.896;6.496;2023-06-14T10:04:56;7.70;;;2.00;;
20042;SDS011;10182;52.896;6.496;2023-06-14T10:10:02;5.00;;;2.20;;
20042;SDS011;10182;52.896;6.496;2023-06-14T10:15:07;5.80;;;2.30;;
20042;SDS011;10182;52.896;6.496;2023-06-14T10:20:15;2.40;;;1.80;;
20042;SDS011;10182;52.896;6.496;2023-06-14T10:25:26;7.07;;;1.80;;
20042;SDS011;10182;52.896;6.496;2023-06-14T10:30:30;1.50;;;1.20;;
20042;SDS011;10182;52.896;6.496;2023-06-14T10:35:32;1.97;;;1.53;;
20042;SDS011;10182;52.896;6.496;2023-06-14T10:40:33;4.60;;;1.40;;
20042;SDS011;10182;52.896;6.496;2023-06-14T10:45:38;5.57;;;1.30;;
20042;SDS011;10182;52.896;6.496;2023-06-14T10:51:18;3.63;;;1.40;;
20042;SDS011;10182;52.896;6.496;2023-06-14T10:56:27;2.83;;;1.10;;
20042;SDS011;10182;52.896;6.496;2023-06-14T11:01:36;1.70;;;1.13;;
20042;SDS011;10182;52.896;6.496;2023-06-14T11:06:46;5.43;;;1.50;;
20042;SDS011;10182;52.896;6.496;2023-06-14T11:11:48;2.17;;;1.30;;
20042;SDS011;10182;52.896;6.496;2023-06-14T11:16:54;2.73;;;1.20;;
20042;SDS011;10182;52.896;6.496;2023-06-14T11:21:56;3.30;;;1.33;;
20042;SDS011;10182;52.896;6.496;2023-06-14T11:26:58;2.57;;;1.17;;
20042;SDS011;10182;52.896;6.496;2023-06-14T11:32:01;5.27;;;1.43;;
20042;SDS011;10182;52.896;6.496;2023-06-14T11:37:03;1.57;;;1.47;;
20042;SDS011;10182;52.896;6.496;2023-06-14T11:42:05;2.57;;;1.30;;
20042;SDS011;10182;52.896;6.496;2023-06-14T11:47:08;3.40;;;1.60;;
20042;SDS011;10182;52.896;6.496;2023-06-14T11:52:10;4.83;;;1.33;;
20042;SDS011;10182;52.896;6.496;2023-06-14T11:57:12;1.80;;;1.20;;
20042;SDS011;10182;52.896;6.496;2023-06-14T12:02:15;3.20;;;1.60;;
20042;SDS011;10182;52.896;6.496;2023-06-14T12:07:17;2.03;;;1.30;;
20042;SDS011;10182;52.896;6.496;2023-06-14T12:12:20;4.43;;;1.50;;
20042;SDS011;10182;52.896;6.496;2023-06-14T12:17:23;6.90;;;1.57;;
20042;SDS011;10182;52.896;6.496;2023-06-14T12:22:25;7.70;;;1.73;;
20042;SDS011;10182;52.896;6.496;2023-06-14T12:27:30;2.00;;;1.40;;
20042;SDS011;10182;52.896;6.496;2023-06-14T12:32:34;3.97;;;1.60;;
20042;SDS011;10182;52.896;6.496;2023-06-14T12:37:36;4.53;;;1.60;;
20042;SDS011;10182;52.896;6.496;2023-06-14T12:42:38;2.53;;;1.70;;
20042;SDS011;10182;52.896;6.496;2023-06-14T12:47:41;2.13;;;1.50;;
20042;SDS011;10182;52.896;6.496;2023-06-14T12:52:43;4.83;;;1.20;;
20042;SDS011;10182;52.896;6.496;2023-06-14T12:57:45;3.97;;;1.47;;
20042;SDS011;10182;52.896;6.496;2023-06-14T13:02:50;2.30;;;1.50;;
20042;SDS011;10182;52.896;6.496;2023-06-14T13:07:52;3.47;;;1.50;;
20042;SDS011;10182;52.896;6.496;2023-06-14T13:12:54;3.10;;;1.50;;
20042;SDS011;10182;52.896;6.496;2023-06-14T13:17:59;6.70;;;1.50;;
20042;SDS011;10182;52.896;6.496;2023-06-14T13:23:01;7.23;;;1.70;;
20042;SDS011;10182;52.896;6.496;2023-06-14T13:28:04;5.27;;;1.47;;
20042;SDS011;10182;52.896;6.496;2023-06-14T13:33:07;4.03;;;1.50;;
20042;SDS011;10182;52.896;6.496;2023-06-14T13:38:09;5.60;;;1.67;;
20042;SDS011;10182;52.896;6.496;2023-06-14T13:43:11;2.50;;;1.10;;
20042;SDS011;10182;52.896;6.496;2023-06-14T13:48:14;2.60;;;1.20;;
20042;SDS011;10182;52.896;6.496;2023-06-14T13:53:16;2.87;;;1.40;;
20042;SDS011;10182;52.896;6.496;2023-06-14T13:58:17;2.77;;;1.27;;
20042;SDS011;10182;52.896;6.496;2023-06-14T14:03:21;1.50;;;1.10;;
20042;SDS011;10182;52.896;6.496;2023-06-14T14:08:23;2.60;;;1.40;;
20042;SDS011;10182;52.896;6.496;2023-06-14T14:13:24;2.90;;;1.37;;
20042;SDS011;10182;52.896;6.496;2023-06-14T14:18:27;5.27;;;1.70;;
20042;SDS011;10182;52.896;6.496;2023-06-14T14:23:29;4.47;;;1.20;;
20042;SDS011;10182;52.896;6.496;2023-06-14T14:28:31;2.73;;;1.40;;
20042;SDS011;10182;52.896;6.496;2023-06-14T14:33:35;32.63;;;4.77;;
20042;SDS011;10182;52.896;6.496;2023-06-14T14:38:36;1.87;;;1.67;;
20042;SDS011;10182;52.896;6.496;2023-06-14T14:43:38;4.00;;;1.43;;
20042;SDS011;10182;52.896;6.496;2023-06-14T14:48:41;1.70;;;1.40;;
20042;SDS011;10182;52.896;6.496;2023-06-14T14:53:43;3.03;;;1.57;;
20042;SDS011;10182;52.896;6.496;2023-06-14T14:58:45;2.43;;;1.20;;
20042;SDS011;10182;52.896;6.496;2023-06-14T15:03:50;2.83;;;1.30;;
20042;SDS011;10182;52.896;6.496;2023-06-14T15:08:52;2.77;;;1.43;;
20042;SDS011;10182;52.896;6.496;2023-06-14T15:13:53;3.57;;;1.57;;
20042;SDS011;10182;52.896;6.496;2023-06-14T15:18:56;3.87;;;1.83;;
20042;SDS011;10182;52.896;6.496;2023-06-14T15:23:58;3.40;;;1.80;;
20042;SDS011;10182;52.896;6.496;2023-06-14T15:29:00;2.70;;;1.60;;
20042;SDS011;10182;52.896;6.496;2023-06-14T15:34:03;4.23;;;1.77;;
20042;SDS011;10182;52.896;6.496;2023-06-14T15:39:04;2.60;;;1.30;;
20042;SDS011;10182;52.896;6.496;2023-06-14T15:44:06;1.50;;;1.40;;
20042;SDS011;10182;52.896;6.496;2023-06-14T15:49:09;3.50;;;2.00;;
20042;SDS011;10182;52.896;6.496;2023-06-14T15:54:11;9.07;;;2.00;;
20042;SDS011;10182;52.896;6.496;2023-06-14T15:59:13;1.77;;;1.50;;
20042;SDS011;10182;52.896;6.496;2023-06-14T16:04:16;4.43;;;1.93;;
20042;SDS011;10182;52.896;6.496;2023-06-14T16:09:18;2.30;;;1.70;;
20042;SDS011;10182;52.896;6.496;2023-06-14T16:14:20;4.37;;;1.80;;
20042;SDS011;10182;52.896;6.496;2023-06-14T16:19:23;4.10;;;2.10;;
20042;SDS011;10182;52.896;6.496;2023-06-14T16:24:24;2.27;;;1.83;;
20042;SDS011;10182;52.896;6.496;2023-06-14T16:29:26;2.00;;;1.80;;
20042;SDS011;10182;52.896;6.496;2023-06-14T16:34:29;6.23;;;2.07;;
20042;SDS011;10182;52.896;6.496;2023-06-14T16:39:33;2.37;;;2.17;;
20042;SDS011;10182;52.896;6.496;2023-06-14T16:44:34;4.37;;;2.10;;
20042;SDS011;10182;52.896;6.496;2023-06-14T16:49:37;5.10;;;2.23;;
20042;SDS011;10182;52.896;6.496;2023-06-14T16:54:39;3.37;;;2.17;;
20042;SDS011;10182;52.896;6.496;2023-06-14T16:59:40;3.60;;;1.87;;
20042;SDS011;10182;52.896;6.496;2023-06-14T17:04:44;4.60;;;2.40;;
20042;SDS011;10182;52.896;6.496;2023-06-14T17:09:45;2.90;;;2.10;;
20042;SDS011;10182;52.896;6.496;2023-06-14T17:14:47;5.57;;;2.30;;
20042;SDS011;10182;52.896;6.496;2023-06-14T17:19:50;2.50;;;2.30;;
20042;SDS011;10182;52.896;6.496;2023-06-14T17:24:52;4.93;;;2.30;;
20042;SDS011;10182;52.896;6.496;2023-06-14T17:29:54;5.47;;;2.20;;
20042;SDS011;10182;52.896;6.496;2023-06-14T17:34:57;4.17;;;2.50;;
20042;SDS011;10182;52.896;6.496;2023-06-14T17:39:58;4.63;;;2.10;;
20042;SDS011;10182;52.896;6.496;2023-06-14T17:45:00;3.73;;;2.30;;
20042;SDS011;10182;52.896;6.496;2023-06-14T17:50:04;3.50;;;2.50;;
20042;SDS011;10182;52.896;6.496;2023-06-14T17:55:06;4.13;;;1.90;;
20042;SDS011;10182;52.896;6.496;2023-06-14T18:00:09;5.20;;;2.87;;
20042;SDS011;10182;52.896;6.496;2023-06-14T18:05:13;3.63;;;2.20;;
20042;SDS011;10182;52.896;6.496;2023-06-14T18:10:15;4.50;;;2.57;;
20042;SDS011;10182;52.896;6.496;2023-06-14T18:15:17;8.53;;;2.60;;
20042;SDS011;10182;52.896;6.496;2023-06-14T18:20:20;4.40;;;2.43;;
20042;SDS011;10182;52.896;6.496;2023-06-14T18:25:23;6.57;;;2.93;;
20042;SDS011;10182;52.896;6.496;2023-06-14T18:30:24;5.80;;;2.50;;
20042;SDS011;10182;52.896;6.496;2023-06-14T18:35:28;6.23;;;3.07;;
20042;SDS011;10182;52.896;6.496;2023-06-14T18:40:29;5.93;;;2.57;;
20042;SDS011;10182;52.896;6.496;2023-06-14T18:45:31;3.90;;;2.57;;
20042;SDS011;10182;52.896;6.496;2023-06-14T18:50:34;6.10;;;3.20;;
20042;SDS011;10182;52.896;6.496;2023-06-14T18:55:36;5.00;;;2.90;;
20042;SDS011;10182;52.896;6.496;2023-06-14T19:00:38;3.97;;;2.80;;
20042;SDS011;10182;52.896;6.496;2023-06-14T19:05:42;5.83;;;2.97;;
20042;SDS011;10182;52.896;6.496;2023-06-14T19:10:43;6.93;;;2.60;;
20042;SDS011;10182;52.896;6.496;2023-06-14T19:15:45;4.53;;;2.80;;
20042;SDS011;10182;52.896;6.496;2023-06-14T19:20:52;5.33;;;2.90;;
20042;SDS011;10182;52.896;6.496;2023-06-14T19:25:54;6.70;;;3.33;;
20042;SDS011;10182;52.896;6.496;2023-06-14T19:30:55;5.50;;;2.60;;
20042;SDS011;10182;52.896;6.496;2023-06-14T19:35:58;6.40;;;2.90;;
20042;SDS011;10182;52.896;6.496;2023-06-14T19:41:00;5.57;;;2.67;;
20042;SDS011;10182;52.896;6.496;2023-06-14T19:46:02;6.70;;;3.00;;
20042;SDS011;10182;52.896;6.496;2023-06-14T19:51:05;5.37;;;2.40;;
20042;SDS011;10182;52.896;6.496;2023-06-14T19:56:07;9.77;;;2.80;;
20042;SDS011;10182;52.896;6.496;2023-06-14T20:01:09;4.90;;;2.70;;
20042;SDS011;10182;52.896;6.496;2023-06-14T20:06:12;6.87;;;3.00;;
20042;SDS011;10182;52.896;6.496;2023-06-14T20:11:13;6.97;;;2.90;;
20042;SDS011;10182;52.896;6.496;2023-06-14T20:16:16;5.43;;;2.97;;
20042;SDS011;10182;52.896;6.496;2023-06-14T20:21:19;6.23;;;2.70;;
20042;SDS011;10182;52.896;6.496;2023-06-14T20:26:21;4.23;;;2.80;;
20042;SDS011;10182;52.896;6.496;2023-06-14T20:31:22;6.03;;;2.63;;
20042;SDS011;10182;52.896;6.496;2023-06-14T20:36:25;6.73;;;3.73;;
20042;SDS011;10182;52.896;6.496;2023-06-14T20:41:30;4.60;;;2.83;;
20042;SDS011;10182;52.896;6.496;2023-06-14T20:46:31;7.30;;;3.33;;
20042;SDS011;10182;52.896;6.496;2023-06-14T20:51:36;5.57;;;3.13;;
20042;SDS011;10182;52.896;6.496;2023-06-14T20:56:38;6.37;;;2.93;;
20042;SDS011;10182;52.896;6.496;2023-06-14T21:01:40;6.07;;;3.07;;
20042;SDS011;10182;52.896;6.496;2023-06-14T21:06:44;5.27;;;3.07;;
20042;SDS011;10182;52.896;6.496;2023-06-14T21:11:45;7.43;;;3.17;;
20042;SDS011;10182;52.896;6.496;2023-06-14T21:16:47;8.73;;;3.50;;
20042;SDS011;10182;52.896;6.496;2023-06-14T21:21:50;5.40;;;2.90;;
20042;SDS011;10182;52.896;6.496;2023-06-14T21:26:54;5.20;;;2.97;;
20042;SDS011;10182;52.896;6.496;2023-06-14T21:31:55;7.30;;;3.13;;
20042;SDS011;10182;52.896;6.496;2023-06-14T21:36:58;8.50;;;3.27;;
20042;SDS011;10182;52.896;6.496;2023-06-14T21:42:00;5.60;;;3.07;;
20042;SDS011;10182;52.896;6.496;2023-06-14T21:47:02;7.53;;;2.90;;
20042;SDS011;10182;52.896;6.496;2023-06-14T21:52:06;4.43;;;3.30;;
20042;SDS011;10182;52.896;6.496;2023-06-14T21:57:08;5.07;;;3.60;;
20042;SDS011;10182;52.896;6.496;2023-06-14T22:02:10;4.93;;;3.10;;
20042;SDS011;10182;52.896;6.496;2023-06-14T22:07:13;5.47;;;3.53;;
20042;SDS011;10182;52.896;6.496;2023-06-14T22:12:17;5.63;;;3.63;;
20042;SDS011;10182;52.896;6.496;2023-06-14T22:17:21;11.23;;;4.00;;
20042;SDS011;10182;52.896;6.496;2023-06-14T22:22:24;7.37;;;3.90;;
20042;SDS011;10182;52.896;6.496;2023-06-14T22:27:26;9.20;;;3.90;;
20042;SDS011;10182;52.896;6.496;2023-06-14T22:32:28;5.50;;;3.30;;
20042;SDS011;10182;52.896;6.496;2023-06-14T22:37:34;5.23;;;3.63;;
20042;SDS011;10182;52.896;6.496;2023-06-14T22:42:38;5.53;;;3.70;;
20042;SDS011;10182;52.896;6.496;2023-06-14T22:47:45;5.90;;;3.70;;
20042;SDS011;10182;52.896;6.496;2023-06-14T22:52:48;9.27;;;4.30;;
20042;SDS011;10182;52.896;6.496;2023-06-14T22:57:50;7.40;;;4.00;;
20042;SDS011;10182;52.896;6.496;2023-06-14T23:02:52;4.80;;;3.47;;
20042;SDS011;10182;52.896;6.496;2023-06-14T23:07:55;5.37;;;3.43;;
20042;SDS011;10182;52.896;6.496;2023-06-14T23:12:57;4.87;;;3.70;;
20042;SDS011;10182;52.896;6.496;2023-06-14T23:17:59;3.60;;;3.20;;
20042;SDS011;10182;52.896;6.496;2023-06-14T23:23:02;6.87;;;3.63;;
20042;SDS011;10182;52.896;6.496;2023-06-14T23:28:04;5.70;;;4.03;;
20042;SDS011;10182;52.896;6.496;2023-06-14T23:33:07;5.37;;;3.90;;
20042;SDS011;10182;52.896;6.496;2023-06-14T23:38:10;5.03;;;3.63;;
20042;SDS011;10182;52.896;6.496;2023-06-14T23:43:12;5.43;;;3.23;;
20042;SDS011;10182;52.896;6.496;2023-06-14T23:48:14;5.17;;;3.40;;
20042;SDS011;10182;52.896;6.496;2023-06-14T23:53:17;4.70;;;2.93;;
20042;SDS011;10182;52.896;6.496;2023-06-14T23:58:19;6.77;;;3.47;;
